createdAt,value
2022-12-08T00:01:23.702Z,-11.90
2022-12-08T00:03:51.705Z,-11.90
2022-12-08T00:06:44.486Z,-12.00
2022-12-08T00:09:24.369Z,-12.00
2022-12-08T00:11:52.412Z,-12.00
2022-12-08T00:14:19.657Z,-12.00
2022-12-08T00:16:46.778Z,-11.90
2022-12-08T00:19:13.813Z,-11.90
2022-12-08T00:21:40.877Z,-11.90
2022-12-08T00:24:08.233Z,-11.90
2022-12-08T00:26:36.462Z,-12.00
2022-12-08T00:29:03.666Z,-12.00
2022-12-08T00:31:30.780Z,-11.90
2022-12-08T00:33:58.786Z,-11.90
2022-12-08T00:36:25.824Z,-12.00
2022-12-08T00:38:52.994Z,-11.90
2022-12-08T00:41:40.580Z,-12.00
2022-12-08T00:44:08.679Z,-12.00
2022-12-08T00:46:35.922Z,-12.00
2022-12-08T00:49:04.516Z,-12.00
2022-12-08T00:51:32.154Z,-12.00
2022-12-08T00:53:59.438Z,-12.00
2022-12-08T00:56:27.251Z,-12.00
2022-12-08T00:58:54.225Z,-11.90
2022-12-08T01:01:21.291Z,-11.90
2022-12-08T01:03:48.543Z,-12.00
2022-12-08T01:06:15.663Z,-12.00
2022-12-08T01:08:42.899Z,-12.00
2022-12-08T01:11:15.905Z,-12.00
2022-12-08T01:13:43.818Z,-12.00
2022-12-08T01:16:18.782Z,-11.80
2022-12-08T01:18:45.836Z,-11.70
2022-12-08T01:21:12.786Z,-11.60
2022-12-08T01:23:39.789Z,-11.60
2022-12-08T01:26:08.902Z,-11.50
2022-12-08T01:28:35.881Z,-11.50
2022-12-08T01:31:03.208Z,-11.60
2022-12-08T01:33:30.502Z,-11.60
2022-12-08T01:36:02.391Z,-11.60
2022-12-08T01:38:29.367Z,-11.60
2022-12-08T01:40:56.357Z,-11.60
2022-12-08T01:43:23.340Z,-11.60
2022-12-08T01:45:50.367Z,-11.60
2022-12-08T01:48:27.922Z,-11.60
2022-12-08T01:50:55.929Z,-11.60
2022-12-08T01:53:28.912Z,-11.50
2022-12-08T01:56:24.688Z,-11.50
2022-12-08T01:58:54.454Z,-11.40
2022-12-08T02:01:21.985Z,-11.40
2022-12-08T02:03:55.622Z,-11.30
2022-12-08T02:06:22.998Z,-11.20
2022-12-08T02:08:50.863Z,-11.00
2022-12-08T02:11:17.834Z,-11.00
2022-12-08T02:13:46.271Z,-11.00
2022-12-08T02:16:19.087Z,-11.00
2022-12-08T02:19:31.787Z,-10.90
2022-12-08T02:22:20.762Z,-10.90
2022-12-08T02:25:19.500Z,-10.80
2022-12-08T02:28:03.849Z,-10.70
2022-12-08T02:30:45.654Z,-10.60
2022-12-08T02:33:37.667Z,-10.50
2022-12-08T02:36:13.665Z,-10.40
2022-12-08T02:39:03.613Z,-10.20
2022-12-08T02:41:46.719Z,-10.10
2022-12-08T02:44:16.517Z,-10.00
2022-12-08T02:46:51.593Z,-9.90
2022-12-08T02:49:18.626Z,-9.70
2022-12-08T02:51:45.687Z,-9.60
2022-12-08T02:54:13.525Z,-9.50
2022-12-08T02:57:07.777Z,-9.40
2022-12-08T02:59:42.664Z,-9.30
2022-12-08T03:02:31.574Z,-9.30
2022-12-08T03:05:27.347Z,-9.30
2022-12-08T03:08:01.533Z,-9.40
2022-12-08T03:10:42.186Z,-9.30
2022-12-08T03:13:19.926Z,-9.30
2022-12-08T03:15:50.369Z,-9.30
2022-12-08T03:18:20.624Z,-9.30
2022-12-08T03:20:49.087Z,-9.20
2022-12-08T03:23:19.159Z,-9.20
2022-12-08T03:26:10.282Z,-9.20
2022-12-08T03:28:38.189Z,-9.10
2022-12-08T03:31:10.064Z,-9.00
2022-12-08T03:33:41.103Z,-9.00
2022-12-08T03:36:09.469Z,-9.00
2022-12-08T03:38:42.271Z,-8.80
2022-12-08T03:41:18.671Z,-8.80
2022-12-08T03:43:51.659Z,-8.80
2022-12-08T03:48:47.008Z,-9.00
2022-12-08T03:51:14.185Z,-8.90
2022-12-08T03:53:41.775Z,-9.00
2022-12-08T03:56:23.977Z,-9.00
2022-12-08T03:58:51.496Z,-9.00
2022-12-08T04:01:18.549Z,-9.00
2022-12-08T04:03:45.614Z,-9.00
2022-12-08T04:06:12.749Z,-9.00
2022-12-08T04:08:39.879Z,-9.00
2022-12-08T04:11:07.374Z,-8.90
2022-12-08T04:13:40.852Z,-8.90
2022-12-08T04:16:08.959Z,-8.80
2022-12-08T04:18:36.367Z,-8.80
2022-12-08T04:21:03.436Z,-8.80
2022-12-08T04:23:30.641Z,-8.80
2022-12-08T04:25:57.684Z,-8.70
2022-12-08T04:28:24.681Z,-8.70
2022-12-08T04:30:51.637Z,-8.70
2022-12-08T04:33:18.658Z,-8.70
2022-12-08T04:35:45.871Z,-8.60
2022-12-08T04:38:13.098Z,-8.70
2022-12-08T04:40:40.134Z,-8.60
2022-12-08T04:43:07.234Z,-8.70
2022-12-08T04:45:34.416Z,-8.70
2022-12-08T04:48:02.336Z,-8.70
2022-12-08T04:50:29.332Z,-8.70
2022-12-08T04:52:56.331Z,-8.60
2022-12-08T04:55:23.378Z,-8.60
2022-12-08T04:57:50.635Z,-8.60
2022-12-08T05:00:17.881Z,-8.60
2022-12-08T05:02:44.957Z,-8.50
2022-12-08T05:05:12.105Z,-8.50
2022-12-08T05:07:39.206Z,-8.50
2022-12-08T05:10:07.217Z,-8.50
2022-12-08T05:12:34.686Z,-8.50
2022-12-08T05:15:01.659Z,-8.50
2022-12-08T05:17:28.704Z,-8.40
2022-12-08T05:19:55.751Z,-8.30
2022-12-08T05:22:22.765Z,-8.30
2022-12-08T05:24:49.734Z,-8.20
2022-12-08T05:27:16.963Z,-8.30
2022-12-08T05:29:43.999Z,-8.30
2022-12-08T05:32:11.016Z,-8.20
2022-12-08T05:34:38.038Z,-8.10
2022-12-08T05:37:05.068Z,-8.10
2022-12-08T05:39:32.199Z,-8.00
2022-12-08T05:42:00.013Z,-7.90
2022-12-08T05:44:27.135Z,-7.90
2022-12-08T05:46:54.115Z,-7.90
2022-12-08T05:49:21.140Z,-7.80
2022-12-08T05:51:48.100Z,-7.80
2022-12-08T05:54:15.068Z,-7.80
2022-12-08T05:56:42.097Z,-7.80
2022-12-08T05:59:09.730Z,-7.80
2022-12-08T06:01:36.924Z,-7.80
2022-12-08T06:04:04.898Z,-7.80
2022-12-08T06:06:34.444Z,-7.80
2022-12-08T06:09:03.726Z,-7.80
2022-12-08T06:11:32.349Z,-7.80
2022-12-08T06:14:00.215Z,-7.80
2022-12-08T06:16:28.523Z,-7.80
2022-12-08T06:18:56.640Z,-7.80
2022-12-08T06:21:24.495Z,-7.80
2022-12-08T06:23:53.504Z,-7.70
2022-12-08T06:26:21.157Z,-7.60
2022-12-08T06:28:49.726Z,-7.60
2022-12-08T06:31:24.878Z,-7.60
2022-12-08T06:33:54.070Z,-7.60
2022-12-08T06:36:23.643Z,-7.50
2022-12-08T06:38:50.938Z,-7.50
2022-12-08T06:41:18.584Z,-7.60
2022-12-08T06:43:46.318Z,-7.50
2022-12-08T06:46:16.470Z,-7.50
2022-12-08T06:48:44.008Z,-7.40
2022-12-08T06:51:19.587Z,-7.40
2022-12-08T06:53:47.254Z,-7.30
2022-12-08T06:56:16.003Z,-7.30
2022-12-08T06:58:49.006Z,-7.20
2022-12-08T07:01:19.427Z,-7.20
2022-12-08T07:03:47.360Z,-7.10
2022-12-08T07:06:21.880Z,-7.00
2022-12-08T07:08:49.291Z,-7.00
2022-12-08T07:11:21.121Z,-6.90
2022-12-08T07:13:48.905Z,-6.90
2022-12-08T07:16:17.488Z,-6.90
2022-12-08T07:18:44.635Z,-6.80
2022-12-08T07:21:15.026Z,-6.80
2022-12-08T07:23:42.989Z,-6.70
2022-12-08T07:26:11.925Z,-6.60
2022-12-08T07:28:40.763Z,-6.60
2022-12-08T07:31:09.521Z,-6.60
2022-12-08T07:33:36.746Z,-6.50
2022-12-08T07:36:07.091Z,-6.50
2022-12-08T07:38:34.330Z,-6.50
2022-12-08T07:41:01.635Z,-6.40
2022-12-08T07:43:29.074Z,-6.40
2022-12-08T07:45:56.163Z,-6.40
2022-12-08T07:48:23.254Z,-6.40
2022-12-08T07:50:50.244Z,-6.40
2022-12-08T07:53:17.259Z,-6.30
2022-12-08T07:55:44.928Z,-6.30
2022-12-08T07:58:12.327Z,-6.30
2022-12-08T08:00:39.465Z,-6.30
2022-12-08T08:03:08.880Z,-6.20
2022-12-08T08:05:36.006Z,-6.20
2022-12-08T08:08:03.256Z,-6.20
2022-12-08T08:10:30.488Z,-6.20
2022-12-08T08:13:00.929Z,-6.20
2022-12-08T08:15:28.654Z,-6.30
2022-12-08T08:17:55.779Z,-6.20
2022-12-08T08:20:23.157Z,-6.10
2022-12-08T08:22:51.513Z,-6.20
2022-12-08T08:25:20.512Z,-6.10
2022-12-08T08:27:48.297Z,-6.20
2022-12-08T08:30:20.398Z,-6.10
2022-12-08T08:32:50.289Z,-6.20
2022-12-08T08:35:17.593Z,-6.10
2022-12-08T08:37:48.827Z,-6.10
2022-12-08T08:40:17.762Z,-6.10
2022-12-08T08:42:44.821Z,-6.20
2022-12-08T08:45:12.341Z,-6.20
2022-12-08T08:47:39.312Z,-6.20
2022-12-08T08:50:07.399Z,-6.10
2022-12-08T08:52:34.867Z,-6.10
2022-12-08T08:55:02.129Z,-6.10
2022-12-08T08:57:29.106Z,-6.10
2022-12-08T08:59:56.111Z,-6.10
2022-12-08T09:02:23.523Z,-6.10
2022-12-08T09:04:50.555Z,-6.10
2022-12-08T09:07:17.720Z,-6.10
2022-12-08T09:09:44.777Z,-6.10
2022-12-08T09:12:12.937Z,-6.00
2022-12-08T09:14:40.339Z,-6.10
2022-12-08T09:17:08.770Z,-6.00
2022-12-08T09:19:35.920Z,-6.00
2022-12-08T09:22:03.338Z,-5.90
2022-12-08T09:24:30.356Z,-5.80
2022-12-08T09:26:57.317Z,-5.80
2022-12-08T09:29:26.214Z,-5.60
2022-12-08T09:31:56.499Z,-5.60
2022-12-08T09:34:23.555Z,-5.50
2022-12-08T09:36:50.616Z,-5.50
2022-12-08T09:39:17.661Z,-5.30
2022-12-08T09:41:50.265Z,-5.40
2022-12-08T09:44:38.962Z,-5.40
2022-12-08T09:47:22.466Z,-5.40
2022-12-08T09:50:05.041Z,-5.30
2022-12-08T09:52:45.347Z,-5.30
2022-12-08T09:55:31.691Z,-5.30
2022-12-08T09:58:03.373Z,-5.20
2022-12-08T10:00:30.515Z,-5.20
2022-12-08T10:02:57.728Z,-5.20
2022-12-08T10:05:26.201Z,-5.10
2022-12-08T10:08:11.449Z,-5.10
2022-12-08T10:10:41.854Z,-5.10
2022-12-08T10:13:24.286Z,-5.10
2022-12-08T10:16:24.240Z,-5.00
2022-12-08T10:19:11.680Z,-4.90
2022-12-08T10:21:41.007Z,-5.00
2022-12-08T10:24:41.221Z,-5.00
2022-12-08T10:27:12.623Z,-4.90
2022-12-08T10:29:42.690Z,-4.90
2022-12-08T10:32:29.454Z,-4.90
2022-12-08T10:35:17.412Z,-4.90
2022-12-08T10:38:01.944Z,-4.90
2022-12-08T10:40:40.527Z,-4.90
2022-12-08T10:43:17.843Z,-4.80
2022-12-08T10:45:45.160Z,-4.80
2022-12-08T10:48:17.446Z,-4.80
2022-12-08T10:51:05.767Z,-4.80
2022-12-08T10:53:34.370Z,-4.70
2022-12-08T10:56:04.300Z,-4.70
2022-12-08T10:58:44.274Z,-4.60
2022-12-08T11:01:18.994Z,-4.60
2022-12-08T11:03:52.063Z,-4.60
2022-12-08T11:06:35.757Z,-4.60
2022-12-08T11:09:22.547Z,-4.60
2022-12-08T11:11:52.240Z,-4.60
2022-12-08T11:14:24.497Z,-4.60
2022-12-08T11:17:09.384Z,-4.50
2022-12-08T11:19:42.121Z,-4.50
2022-12-08T11:22:25.603Z,-4.50
2022-12-08T11:25:07.656Z,-4.40
2022-12-08T11:27:36.947Z,-4.40
2022-12-08T11:30:17.347Z,-4.40
2022-12-08T11:32:46.418Z,-4.40
2022-12-08T11:35:29.970Z,-4.40
2022-12-08T11:38:20.644Z,-4.40
2022-12-08T11:40:52.311Z,-4.40
2022-12-08T11:43:22.986Z,-4.40
2022-12-08T11:46:00.041Z,-4.40
2022-12-08T11:48:36.841Z,-4.40
2022-12-08T11:51:19.766Z,-4.30
2022-12-08T11:54:13.645Z,-4.30
2022-12-08T11:56:51.470Z,-4.20
2022-12-08T11:59:34.755Z,-4.30
2022-12-08T12:02:04.608Z,-4.30
2022-12-08T12:04:58.968Z,-4.30
2022-12-08T12:07:38.273Z,-4.30
2022-12-08T12:10:23.152Z,-4.30
2022-12-08T12:13:09.721Z,-4.30
2022-12-08T12:16:14.178Z,-4.30
2022-12-08T12:18:46.362Z,-4.30
2022-12-08T12:21:38.211Z,-4.40
2022-12-08T12:24:31.563Z,-4.40
2022-12-08T12:27:02.938Z,-4.40
2022-12-08T12:29:33.811Z,-4.40
2022-12-08T12:32:10.278Z,-4.40
2022-12-08T12:34:57.396Z,-4.50
2022-12-08T12:37:37.395Z,-4.50
2022-12-08T12:40:19.530Z,-4.50
2022-12-08T12:43:09.702Z,-4.50
2022-12-08T12:45:43.479Z,-4.50
2022-12-08T12:48:10.405Z,-4.50
2022-12-08T12:50:46.474Z,-4.60
2022-12-08T12:53:16.383Z,-4.60
2022-12-08T12:55:46.489Z,-4.70
2022-12-08T12:58:30.039Z,-4.60
2022-12-08T13:01:12.099Z,-4.70
2022-12-08T13:03:48.760Z,-4.70
2022-12-08T13:06:33.671Z,-4.70
2022-12-08T13:09:00.925Z,-4.60
2022-12-08T13:11:28.138Z,-4.60
2022-12-08T13:14:01.376Z,-4.60
2022-12-08T13:16:32.644Z,-4.60
2022-12-08T13:19:03.948Z,-4.60
2022-12-08T13:21:39.253Z,-4.60
2022-12-08T13:24:17.652Z,-4.70
2022-12-08T13:26:45.676Z,-4.70
2022-12-08T13:29:26.299Z,-4.70
2022-12-08T13:31:54.266Z,-4.70
2022-12-08T13:34:46.036Z,-4.60
2022-12-08T13:37:13.668Z,-4.60
2022-12-08T13:39:40.683Z,-4.60
2022-12-08T13:42:13.435Z,-4.60
2022-12-08T13:45:21.450Z,-4.70
2022-12-08T13:48:35.310Z,-4.60
2022-12-08T13:57:10.455Z,-4.60
2022-12-08T13:59:44.044Z,-4.70
2022-12-08T14:02:33.142Z,-4.70
2022-12-08T14:07:51.430Z,-4.60
2022-12-08T14:10:25.899Z,-4.60
2022-12-08T14:13:00.686Z,-4.70
2022-12-08T14:15:31.377Z,-4.70
2022-12-08T14:18:01.334Z,-4.60
2022-12-08T14:20:46.502Z,-4.60
2022-12-08T14:23:19.896Z,-4.70
2022-12-08T14:25:48.272Z,-4.60
2022-12-08T14:28:15.358Z,-4.50
2022-12-08T14:30:42.726Z,-4.60
2022-12-08T14:33:16.913Z,-4.60
2022-12-08T14:35:50.851Z,-4.60
2022-12-08T14:38:20.367Z,-4.60
2022-12-08T14:41:05.801Z,-4.60
2022-12-08T14:43:33.550Z,-4.60
2022-12-08T14:46:03.174Z,-4.60
2022-12-08T14:48:38.972Z,-4.60
2022-12-08T14:51:23.790Z,-4.60
2022-12-08T14:54:02.224Z,-4.60
2022-12-08T14:56:52.187Z,-4.60
2022-12-08T14:59:25.724Z,-4.50
2022-12-08T15:02:08.656Z,-4.50
2022-12-08T15:04:38.671Z,-4.50
2022-12-08T15:07:07.798Z,-4.60
2022-12-08T15:09:34.773Z,-4.60
2022-12-08T15:12:26.815Z,-4.60
2022-12-08T15:14:56.068Z,-4.60
2022-12-08T15:17:50.213Z,-4.60
2022-12-08T15:20:35.492Z,-4.60
2022-12-08T15:23:03.857Z,-4.60
2022-12-08T15:25:31.261Z,-4.60
2022-12-08T15:27:58.367Z,-4.60
2022-12-08T15:30:28.817Z,-4.60
2022-12-08T15:32:56.425Z,-4.60
2022-12-08T15:35:23.674Z,-4.60
2022-12-08T15:37:50.694Z,-4.70
2022-12-08T15:40:20.872Z,-4.70
2022-12-08T15:42:48.860Z,-4.60
2022-12-08T15:45:17.408Z,-4.60
2022-12-08T15:47:45.394Z,-4.60
2022-12-08T15:50:17.741Z,-4.70
2022-12-08T15:52:45.733Z,-4.70
2022-12-08T15:55:20.803Z,-4.60
2022-12-08T16:00:54.593Z,-4.70
2022-12-08T16:09:38.585Z,-4.60
2022-12-08T16:12:25.859Z,-4.70
2022-12-08T16:17:41.200Z,-4.70
2022-12-08T16:20:15.237Z,-4.70
2022-12-08T16:23:08.047Z,-4.70
2022-12-08T16:25:46.053Z,-4.70
2022-12-08T16:28:52.781Z,-4.70
2022-12-08T16:31:06.489Z,-4.70
2022-12-08T16:33:37.332Z,-4.60
2022-12-08T16:36:04.605Z,-4.60
2022-12-08T16:38:31.573Z,-4.60
2022-12-08T16:41:16.926Z,-4.60
2022-12-08T16:43:43.895Z,-4.60
2022-12-08T16:46:19.523Z,-4.70
2022-12-08T16:48:46.758Z,-4.70
2022-12-08T16:51:23.375Z,-4.60
2022-12-08T16:53:53.685Z,-4.60
2022-12-08T16:56:26.234Z,-4.60
2022-12-08T16:58:57.653Z,-4.60
2022-12-08T17:01:24.754Z,-4.50
2022-12-08T17:04:14.767Z,-4.60
2022-12-08T17:06:38.835Z,-4.60
2022-12-08T17:09:06.040Z,-4.60
2022-12-08T17:11:37.654Z,-4.50
2022-12-08T17:14:07.938Z,-4.50
2022-12-08T17:16:35.010Z,-4.50
2022-12-08T17:19:03.382Z,-4.50
2022-12-08T17:21:30.726Z,-4.50
2022-12-08T17:23:57.743Z,-4.50
2022-12-08T17:26:24.851Z,-4.50
2022-12-08T17:29:00.514Z,-4.50
2022-12-08T17:31:30.415Z,-4.40
2022-12-08T17:34:03.064Z,-4.40
2022-12-08T17:36:30.213Z,-4.40
2022-12-08T17:38:59.613Z,-4.40
2022-12-08T17:41:26.765Z,-4.40
2022-12-08T17:43:53.805Z,-4.40
2022-12-08T17:46:21.885Z,-4.40
2022-12-08T17:48:49.620Z,-4.40
2022-12-08T17:51:17.385Z,-4.40
2022-12-08T17:53:44.439Z,-4.30
2022-12-08T17:56:20.431Z,-4.30
2022-12-08T17:58:53.971Z,-4.30
2022-12-08T18:01:22.851Z,-4.30
2022-12-08T18:03:50.276Z,-4.40
2022-12-08T18:06:17.846Z,-4.40
2022-12-08T18:08:45.397Z,-4.40
2022-12-08T18:11:18.807Z,-4.40
2022-12-08T18:13:47.327Z,-4.50
2022-12-08T18:16:15.562Z,-4.40
2022-12-08T18:18:42.843Z,-4.40
2022-12-08T18:21:12.078Z,-4.40
2022-12-08T18:23:40.418Z,-4.40
2022-12-08T18:26:10.396Z,-4.40
2022-12-08T18:28:38.565Z,-4.40
2022-12-08T18:31:14.369Z,-4.40
2022-12-08T18:33:43.541Z,-4.30
2022-12-08T18:36:13.419Z,-4.40
2022-12-08T18:38:40.591Z,-4.40
2022-12-08T18:41:11.042Z,-4.40
2022-12-08T18:43:38.356Z,-4.40
2022-12-08T18:46:09.558Z,-4.40
2022-12-08T18:48:39.595Z,-4.40
2022-12-08T18:51:14.903Z,-4.40
2022-12-08T18:53:42.727Z,-4.40
2022-12-08T18:56:19.762Z,-4.50
2022-12-08T18:58:46.780Z,-4.50
2022-12-08T19:01:14.963Z,-4.50
2022-12-08T19:03:52.747Z,-4.50
2022-12-08T19:06:30.071Z,-4.50
2022-12-08T19:08:57.411Z,-4.50
2022-12-08T19:11:26.629Z,-4.50
2022-12-08T19:13:55.203Z,-4.50
2022-12-08T19:16:23.091Z,-4.50
2022-12-08T19:18:50.138Z,-4.50
2022-12-08T19:21:17.357Z,-4.50
2022-12-08T19:23:44.627Z,-4.50
2022-12-08T19:26:12.624Z,-4.60
2022-12-08T19:28:41.158Z,-4.50
2022-12-08T19:31:10.133Z,-4.50
2022-12-08T19:33:38.298Z,-4.50
2022-12-08T19:36:13.535Z,-4.50
2022-12-08T19:38:59.516Z,-4.50
2022-12-08T19:41:46.197Z,-4.50
2022-12-08T19:44:46.144Z,-4.50
2022-12-08T19:47:13.670Z,-4.50
2022-12-08T19:49:41.208Z,-4.50
2022-12-08T19:52:08.317Z,-4.50
2022-12-08T19:54:35.698Z,-4.50
2022-12-08T19:57:02.833Z,-4.50
2022-12-08T19:59:30.355Z,-4.50
2022-12-08T20:01:58.643Z,-4.50
2022-12-08T20:04:27.106Z,-4.50
2022-12-08T20:06:55.501Z,-4.50
2022-12-08T20:09:23.232Z,-4.60
2022-12-08T20:11:50.968Z,-4.60
2022-12-08T20:14:22.167Z,-4.60
2022-12-08T20:16:49.897Z,-4.60
2022-12-08T20:19:17.244Z,-4.60
2022-12-08T20:21:44.234Z,-4.60
2022-12-08T20:24:11.469Z,-4.60
2022-12-08T20:26:38.722Z,-4.60
2022-12-08T20:29:05.981Z,-4.70
2022-12-08T20:31:33.747Z,-4.70
2022-12-08T20:34:01.505Z,-4.70
2022-12-08T20:36:28.744Z,-4.60
2022-12-08T20:38:56.145Z,-4.50
2022-12-08T20:41:23.841Z,-4.50
2022-12-08T20:43:52.024Z,-4.50
2022-12-08T20:46:20.769Z,-4.50
2022-12-08T20:48:48.417Z,-4.50
2022-12-08T20:51:17.169Z,-4.60
2022-12-08T20:53:44.715Z,-4.60
2022-12-08T20:56:19.490Z,-4.60
2022-12-08T20:58:46.740Z,-4.60
2022-12-08T21:01:16.793Z,-4.70
2022-12-08T21:03:47.664Z,-4.60
2022-12-08T21:06:15.550Z,-4.60
2022-12-08T21:08:43.089Z,-4.60
2022-12-08T21:11:10.669Z,-4.70
2022-12-08T21:13:39.430Z,-4.70
2022-12-08T21:16:09.321Z,-4.60
2022-12-08T21:18:39.627Z,-4.60
2022-12-08T21:21:14.810Z,-4.70
2022-12-08T21:23:42.869Z,-4.70
2022-12-08T21:26:18.214Z,-4.70
2022-12-08T21:28:45.925Z,-4.70
2022-12-08T21:31:15.674Z,-4.70
2022-12-08T21:33:43.164Z,-4.70
2022-12-08T21:36:17.525Z,-4.70
2022-12-08T21:38:44.984Z,-4.70
2022-12-08T21:41:15.194Z,-4.70
2022-12-08T21:43:43.470Z,-4.70
2022-12-08T21:46:19.203Z,-4.70
2022-12-08T21:48:46.615Z,-4.60
2022-12-08T21:51:13.946Z,-4.60
2022-12-08T21:53:41.053Z,-4.60
2022-12-08T21:56:09.562Z,-4.60
2022-12-08T21:58:36.990Z,-4.60
2022-12-08T22:01:08.324Z,-4.60
2022-12-08T22:03:35.988Z,-4.50
2022-12-08T22:06:07.934Z,-4.60
2022-12-08T22:08:35.421Z,-4.50
2022-12-08T22:11:03.493Z,-4.60
2022-12-08T22:13:30.646Z,-4.60
2022-12-08T22:15:59.434Z,-4.60
2022-12-08T22:18:26.720Z,-4.60
2022-12-08T22:20:54.044Z,-4.60
2022-12-08T22:23:21.792Z,-4.60
2022-12-08T22:26:02.502Z,-4.60
2022-12-08T22:28:32.740Z,-4.60
2022-12-08T22:31:00.388Z,-4.60
2022-12-08T22:33:30.314Z,-4.60
2022-12-08T22:36:08.127Z,-4.60
2022-12-08T22:38:36.989Z,-4.60
2022-12-08T22:41:05.528Z,-4.60
2022-12-08T22:43:35.917Z,-4.50
2022-12-08T22:46:11.930Z,-4.60
2022-12-08T22:48:39.669Z,-4.50
2022-12-08T22:51:07.357Z,-4.50
2022-12-08T22:53:34.345Z,-4.60
2022-12-08T22:56:08.132Z,-4.60
2022-12-08T22:58:35.543Z,-4.50
2022-12-08T23:01:03.010Z,-4.60
2022-12-08T23:03:30.737Z,-4.60
2022-12-08T23:05:58.080Z,-4.50
2022-12-08T23:08:25.415Z,-4.50
2022-12-08T23:10:53.844Z,-4.50
2022-12-08T23:13:21.617Z,-4.50
2022-12-08T23:15:48.709Z,-4.50
2022-12-08T23:18:19.299Z,-4.50
2022-12-08T23:20:47.763Z,-4.50
2022-12-08T23:23:15.598Z,-4.50
2022-12-08T23:25:43.873Z,-4.60
2022-12-08T23:28:11.382Z,-4.60
2022-12-08T23:30:41.480Z,-4.60
2022-12-08T23:33:08.596Z,-4.60
2022-12-08T23:35:35.835Z,-4.70
2022-12-08T23:38:02.972Z,-4.70
2022-12-08T23:40:29.979Z,-4.80
2022-12-08T23:42:56.998Z,-4.80
2022-12-08T23:45:24.099Z,-4.80
2022-12-08T23:47:51.349Z,-4.70
2022-12-08T23:50:18.402Z,-4.80
2022-12-08T23:52:45.924Z,-4.80
2022-12-08T23:55:13.093Z,-4.80
2022-12-08T23:57:40.185Z,-4.80
